sensor_id;sensor_type;location;lat;lon;timestamp;temperature;humidity
21255;DHT22;10785;50.674;17.954;2023-04-25T00:01:50;10.30;99.90
21255;DHT22;10785;50.674;17.954;2023-04-25T00:04:19;10.30;99.90
21255;DHT22;10785;50.674;17.954;2023-04-25T00:06:49;10.30;99.90
21255;DHT22;10785;50.674;17.954;2023-04-25T00:09:19;10.30;99.90
21255;DHT22;10785;50.674;17.954;2023-04-25T00:11:49;10.20;99.90
21255;DHT22;10785;50.674;17.954;2023-04-25T00:14:17;10.30;99.90
21255;DHT22;10785;50.674;17.954;2023-04-25T00:16:46;10.30;99.90
21255;DHT22;10785;50.674;17.954;2023-04-25T00:19:15;10.20;99.90
21255;DHT22;10785;50.674;17.954;2023-04-25T00:21:44;10.20;99.90
21255;DHT22;10785;50.674;17.954;2023-04-25T00:24:13;10.20;99.90
21255;DHT22;10785;50.674;17.954;2023-04-25T00:26:42;10.10;99.90
21255;DHT22;10785;50.674;17.954;2023-04-25T00:29:12;10.10;99.90
21255;DHT22;10785;50.674;17.954;2023-04-25T00:31:41;10.00;99.90
21255;DHT22;10785;50.674;17.954;2023-04-25T00:34:10;10.00;99.90
21255;DHT22;10785;50.674;17.954;2023-04-25T00:36:38;10.00;99.90
21255;DHT22;10785;50.674;17.954;2023-04-25T00:39:07;9.90;99.90
21255;DHT22;10785;50.674;17.954;2023-04-25T00:41:36;9.90;99.90
21255;DHT22;10785;50.674;17.954;2023-04-25T00:44:05;9.80;99.90
21255;DHT22;10785;50.674;17.954;2023-04-25T00:46:35;9.80;99.90
21255;DHT22;10785;50.674;17.954;2023-04-25T00:49:05;9.80;99.90
21255;DHT22;10785;50.674;17.954;2023-04-25T00:51:33;9.70;99.90
21255;DHT22;10785;50.674;17.954;2023-04-25T00:54:02;9.70;99.90
21255;DHT22;10785;50.674;17.954;2023-04-25T00:56:31;9.60;99.90
21255;DHT22;10785;50.674;17.954;2023-04-25T00:59:00;9.60;99.90
21255;DHT22;10785;50.674;17.954;2023-04-25T01:01:28;9.60;99.90
21255;DHT22;10785;50.674;17.954;2023-04-25T01:04:01;9.50;99.90
21255;DHT22;10785;50.674;17.954;2023-04-25T01:06:29;9.50;99.90
21255;DHT22;10785;50.674;17.954;2023-04-25T01:08:59;9.50;99.90
21255;DHT22;10785;50.674;17.954;2023-04-25T01:11:28;9.40;99.90
21255;DHT22;10785;50.674;17.954;2023-04-25T01:13:57;9.40;99.90
21255;DHT22;10785;50.674;17.954;2023-04-25T01:16:26;9.30;99.90
21255;DHT22;10785;50.674;17.954;2023-04-25T01:18:54;9.30;99.90
21255;DHT22;10785;50.674;17.954;2023-04-25T01:21:24;9.30;99.90
21255;DHT22;10785;50.674;17.954;2023-04-25T01:23:55;9.30;99.90
21255;DHT22;10785;50.674;17.954;2023-04-25T01:26:24;9.30;99.90
21255;DHT22;10785;50.674;17.954;2023-04-25T01:28:53;9.30;99.90
21255;DHT22;10785;50.674;17.954;2023-04-25T01:31:22;9.30;99.90
21255;DHT22;10785;50.674;17.954;2023-04-25T01:33:51;9.20;99.90
21255;DHT22;10785;50.674;17.954;2023-04-25T01:36:21;9.20;99.90
21255;DHT22;10785;50.674;17.954;2023-04-25T01:38:51;9.20;99.90
21255;DHT22;10785;50.674;17.954;2023-04-25T01:41:21;9.10;99.90
21255;DHT22;10785;50.674;17.954;2023-04-25T01:43:50;9.10;99.90
21255;DHT22;10785;50.674;17.954;2023-04-25T01:46:19;9.10;99.90
21255;DHT22;10785;50.674;17.954;2023-04-25T01:48:48;9.10;99.90
21255;DHT22;10785;50.674;17.954;2023-04-25T01:51:17;9.00;99.90
21255;DHT22;10785;50.674;17.954;2023-04-25T01:53:46;9.00;99.90
21255;DHT22;10785;50.674;17.954;2023-04-25T01:56:17;9.00;99.90
21255;DHT22;10785;50.674;17.954;2023-04-25T01:58:46;9.00;99.90
21255;DHT22;10785;50.674;17.954;2023-04-25T02:01:19;9.00;99.90
21255;DHT22;10785;50.674;17.954;2023-04-25T02:04:03;8.90;99.90
21255;DHT22;10785;50.674;17.954;2023-04-25T02:06:36;8.90;99.90
21255;DHT22;10785;50.674;17.954;2023-04-25T02:09:06;8.90;99.90
21255;DHT22;10785;50.674;17.954;2023-04-25T02:11:40;8.90;99.90
21255;DHT22;10785;50.674;17.954;2023-04-25T02:14:29;8.80;99.90
21255;DHT22;10785;50.674;17.954;2023-04-25T02:17:14;8.80;99.90
21255;DHT22;10785;50.674;17.954;2023-04-25T02:19:44;8.80;99.90
21255;DHT22;10785;50.674;17.954;2023-04-25T02:22:13;8.70;99.90
21255;DHT22;10785;50.674;17.954;2023-04-25T02:24:41;8.70;99.90
21255;DHT22;10785;50.674;17.954;2023-04-25T02:27:11;8.70;99.90
21255;DHT22;10785;50.674;17.954;2023-04-25T02:29:40;8.70;99.90
21255;DHT22;10785;50.674;17.954;2023-04-25T02:32:10;8.70;99.90
21255;DHT22;10785;50.674;17.954;2023-04-25T02:34:40;8.70;99.90
21255;DHT22;10785;50.674;17.954;2023-04-25T02:37:08;8.80;99.90
21255;DHT22;10785;50.674;17.954;2023-04-25T02:39:37;8.70;99.90
21255;DHT22;10785;50.674;17.954;2023-04-25T02:42:06;8.70;99.90
21255;DHT22;10785;50.674;17.954;2023-04-25T02:44:36;8.80;99.90
21255;DHT22;10785;50.674;17.954;2023-04-25T02:47:05;8.80;99.90
21255;DHT22;10785;50.674;17.954;2023-04-25T02:49:34;8.80;99.90
21255;DHT22;10785;50.674;17.954;2023-04-25T02:52:03;8.70;99.90
21255;DHT22;10785;50.674;17.954;2023-04-25T02:54:31;8.80;99.90
21255;DHT22;10785;50.674;17.954;2023-04-25T02:57:26;8.70;99.90
21255;DHT22;10785;50.674;17.954;2023-04-25T02:59:57;8.70;99.90
21255;DHT22;10785;50.674;17.954;2023-04-25T03:02:26;8.70;99.90
21255;DHT22;10785;50.674;17.954;2023-04-25T03:04:55;8.70;99.90
21255;DHT22;10785;50.674;17.954;2023-04-25T03:07:23;8.70;99.90
21255;DHT22;10785;50.674;17.954;2023-04-25T03:09:52;8.70;99.90
21255;DHT22;10785;50.674;17.954;2023-04-25T03:12:20;8.70;99.90
21255;DHT22;10785;50.674;17.954;2023-04-25T03:14:49;8.70;99.90
21255;DHT22;10785;50.674;17.954;2023-04-25T03:17:19;8.70;99.90
21255;DHT22;10785;50.674;17.954;2023-04-25T03:19:49;8.70;99.90
21255;DHT22;10785;50.674;17.954;2023-04-25T03:22:18;8.60;99.90
21255;DHT22;10785;50.674;17.954;2023-04-25T03:24:47;8.60;99.90
21255;DHT22;10785;50.674;17.954;2023-04-25T03:27:15;8.60;99.90
21255;DHT22;10785;50.674;17.954;2023-04-25T03:29:44;8.60;99.90
21255;DHT22;10785;50.674;17.954;2023-04-25T03:32:13;8.60;99.90
21255;DHT22;10785;50.674;17.954;2023-04-25T03:34:43;8.60;99.90
21255;DHT22;10785;50.674;17.954;2023-04-25T03:37:12;8.60;99.90
21255;DHT22;10785;50.674;17.954;2023-04-25T03:39:40;8.60;99.90
21255;DHT22;10785;50.674;17.954;2023-04-25T03:42:10;8.60;99.90
21255;DHT22;10785;50.674;17.954;2023-04-25T03:44:39;8.60;99.90
21255;DHT22;10785;50.674;17.954;2023-04-25T03:47:08;8.60;99.90
21255;DHT22;10785;50.674;17.954;2023-04-25T03:49:37;8.60;99.90
21255;DHT22;10785;50.674;17.954;2023-04-25T03:52:07;8.60;99.90
21255;DHT22;10785;50.674;17.954;2023-04-25T03:54:39;8.50;99.90
21255;DHT22;10785;50.674;17.954;2023-04-25T03:57:15;8.60;99.90
21255;DHT22;10785;50.674;17.954;2023-04-25T03:59:44;8.60;99.90
21255;DHT22;10785;50.674;17.954;2023-04-25T04:02:14;8.60;99.90
21255;DHT22;10785;50.674;17.954;2023-04-25T04:04:43;8.60;99.90
21255;DHT22;10785;50.674;17.954;2023-04-25T04:07:14;8.60;99.90
21255;DHT22;10785;50.674;17.954;2023-04-25T04:09:46;8.60;99.90
21255;DHT22;10785;50.674;17.954;2023-04-25T04:12:23;8.60;99.90
21255;DHT22;10785;50.674;17.954;2023-04-25T04:14:52;8.60;99.90
21255;DHT22;10785;50.674;17.954;2023-04-25T04:17:20;8.60;99.90
21255;DHT22;10785;50.674;17.954;2023-04-25T04:19:51;8.50;99.90
21255;DHT22;10785;50.674;17.954;2023-04-25T04:22:22;8.60;99.90
21255;DHT22;10785;50.674;17.954;2023-04-25T04:24:54;8.50;99.90
21255;DHT22;10785;50.674;17.954;2023-04-25T04:27:43;8.50;99.90
21255;DHT22;10785;50.674;17.954;2023-04-25T04:30:21;8.60;99.90
21255;DHT22;10785;50.674;17.954;2023-04-25T04:32:56;8.50;99.90
21255;DHT22;10785;50.674;17.954;2023-04-25T04:35:25;8.50;99.90
21255;DHT22;10785;50.674;17.954;2023-04-25T04:37:55;8.50;99.90
21255;DHT22;10785;50.674;17.954;2023-04-25T04:40:27;8.50;99.90
21255;DHT22;10785;50.674;17.954;2023-04-25T04:43:07;8.50;99.90
21255;DHT22;10785;50.674;17.954;2023-04-25T04:45:38;8.50;99.90
21255;DHT22;10785;50.674;17.954;2023-04-25T04:48:26;8.50;99.90
21255;DHT22;10785;50.674;17.954;2023-04-25T04:50:55;8.60;99.90
21255;DHT22;10785;50.674;17.954;2023-04-25T04:53:58;8.60;99.90
21255;DHT22;10785;50.674;17.954;2023-04-25T04:56:49;8.60;99.90
21255;DHT22;10785;50.674;17.954;2023-04-25T04:59:28;8.60;99.90
21255;DHT22;10785;50.674;17.954;2023-04-25T05:02:07;8.60;99.90
21255;DHT22;10785;50.674;17.954;2023-04-25T05:04:48;8.70;99.90
21255;DHT22;10785;50.674;17.954;2023-04-25T05:07:37;8.70;99.90
21255;DHT22;10785;50.674;17.954;2023-04-25T05:10:30;8.70;99.90
21255;DHT22;10785;50.674;17.954;2023-04-25T05:13:19;8.70;99.90
21255;DHT22;10785;50.674;17.954;2023-04-25T05:16:04;8.70;99.90
21255;DHT22;10785;50.674;17.954;2023-04-25T05:18:55;8.70;99.90
21255;DHT22;10785;50.674;17.954;2023-04-25T05:21:50;8.70;99.90
21255;DHT22;10785;50.674;17.954;2023-04-25T05:24:34;8.80;99.90
21255;DHT22;10785;50.674;17.954;2023-04-25T05:27:33;8.80;99.90
21255;DHT22;10785;50.674;17.954;2023-04-25T05:30:21;8.80;99.90
21255;DHT22;10785;50.674;17.954;2023-04-25T05:33:08;8.80;99.90
21255;DHT22;10785;50.674;17.954;2023-04-25T05:35:38;8.80;99.90
21255;DHT22;10785;50.674;17.954;2023-04-25T05:38:07;8.80;99.90
21255;DHT22;10785;50.674;17.954;2023-04-25T05:40:56;8.90;99.90
21255;DHT22;10785;50.674;17.954;2023-04-25T05:44:04;8.90;99.90
21255;DHT22;10785;50.674;17.954;2023-04-25T05:46:44;9.00;99.90
21255;DHT22;10785;50.674;17.954;2023-04-25T05:49:30;9.10;99.90
21255;DHT22;10785;50.674;17.954;2023-04-25T05:52:04;9.10;99.90
21255;DHT22;10785;50.674;17.954;2023-04-25T05:54:43;9.10;99.90
21255;DHT22;10785;50.674;17.954;2023-04-25T05:57:19;9.20;99.90
21255;DHT22;10785;50.674;17.954;2023-04-25T05:59:50;9.20;99.90
21255;DHT22;10785;50.674;17.954;2023-04-25T06:02:19;9.30;99.90
21255;DHT22;10785;50.674;17.954;2023-04-25T06:04:50;9.30;99.90
21255;DHT22;10785;50.674;17.954;2023-04-25T06:07:19;9.50;99.90
21255;DHT22;10785;50.674;17.954;2023-04-25T06:09:48;9.40;99.90
21255;DHT22;10785;50.674;17.954;2023-04-25T06:12:17;9.70;99.90
21255;DHT22;10785;50.674;17.954;2023-04-25T06:14:47;9.90;99.90
21255;DHT22;10785;50.674;17.954;2023-04-25T06:17:17;10.20;99.90
21255;DHT22;10785;50.674;17.954;2023-04-25T06:19:48;10.40;99.90
21255;DHT22;10785;50.674;17.954;2023-04-25T06:22:18;10.60;99.90
21255;DHT22;10785;50.674;17.954;2023-04-25T06:24:46;10.70;99.90
21255;DHT22;10785;50.674;17.954;2023-04-25T06:27:15;10.90;99.90
21255;DHT22;10785;50.674;17.954;2023-04-25T06:29:44;11.00;98.30
21255;DHT22;10785;50.674;17.954;2023-04-25T06:32:14;11.00;98.30
21255;DHT22;10785;50.674;17.954;2023-04-25T06:34:43;10.60;97.70
21255;DHT22;10785;50.674;17.954;2023-04-25T06:37:12;10.50;99.90
21255;DHT22;10785;50.674;17.954;2023-04-25T06:39:41;10.30;99.90
21255;DHT22;10785;50.674;17.954;2023-04-25T06:42:10;10.40;99.90
21255;DHT22;10785;50.674;17.954;2023-04-25T06:45:10;10.10;99.90
21255;DHT22;10785;50.674;17.954;2023-04-25T06:47:41;9.90;99.90
21255;DHT22;10785;50.674;17.954;2023-04-25T06:50:11;9.80;99.90
21255;DHT22;10785;50.674;17.954;2023-04-25T06:52:40;9.80;99.90
21255;DHT22;10785;50.674;17.954;2023-04-25T06:55:09;9.90;99.90
21255;DHT22;10785;50.674;17.954;2023-04-25T06:57:59;10.10;99.90
21255;DHT22;10785;50.674;17.954;2023-04-25T07:20:11;10.20;99.90
21255;DHT22;10785;50.674;17.954;2023-04-25T07:22:39;10.20;99.90
21255;DHT22;10785;50.674;17.954;2023-04-25T07:25:09;10.20;99.90
21255;DHT22;10785;50.674;17.954;2023-04-25T07:27:39;10.30;99.90
21255;DHT22;10785;50.674;17.954;2023-04-25T07:30:14;10.40;99.90
21255;DHT22;10785;50.674;17.954;2023-04-25T07:32:43;10.50;99.90
21255;DHT22;10785;50.674;17.954;2023-04-25T07:35:14;10.60;98.70
21255;DHT22;10785;50.674;17.954;2023-04-25T07:37:43;10.40;99.90
21255;DHT22;10785;50.674;17.954;2023-04-25T07:40:18;10.50;99.90
21255;DHT22;10785;50.674;17.954;2023-04-25T07:42:56;10.70;99.90
21255;DHT22;10785;50.674;17.954;2023-04-25T07:45:33;10.70;96.60
21255;DHT22;10785;50.674;17.954;2023-04-25T07:48:02;10.80;97.60
21255;DHT22;10785;50.674;17.954;2023-04-25T07:50:36;11.10;95.90
21255;DHT22;10785;50.674;17.954;2023-04-25T07:53:05;11.10;96.30
21255;DHT22;10785;50.674;17.954;2023-04-25T07:55:42;11.00;88.10
21255;DHT22;10785;50.674;17.954;2023-04-25T07:58:15;10.80;89.00
21255;DHT22;10785;50.674;17.954;2023-04-25T08:00:52;10.80;81.70
21255;DHT22;10785;50.674;17.954;2023-04-25T08:03:29;10.80;73.20
21255;DHT22;10785;50.674;17.954;2023-04-25T08:06:01;10.80;73.20
21255;DHT22;10785;50.674;17.954;2023-04-25T08:08:40;10.70;81.70
21255;DHT22;10785;50.674;17.954;2023-04-25T08:11:12;10.80;75.70
21255;DHT22;10785;50.674;17.954;2023-04-25T08:13:40;10.80;74.80
21255;DHT22;10785;50.674;17.954;2023-04-25T08:16:09;10.90;75.50
21255;DHT22;10785;50.674;17.954;2023-04-25T08:18:38;11.10;74.80
21255;DHT22;10785;50.674;17.954;2023-04-25T08:21:08;11.10;72.10
21255;DHT22;10785;50.674;17.954;2023-04-25T08:23:39;11.30;64.20
21255;DHT22;10785;50.674;17.954;2023-04-25T08:26:22;11.00;62.00
21255;DHT22;10785;50.674;17.954;2023-04-25T08:28:51;10.90;64.50
21255;DHT22;10785;50.674;17.954;2023-04-25T08:31:20;10.90;70.30
21255;DHT22;10785;50.674;17.954;2023-04-25T08:33:55;11.00;69.60
21255;DHT22;10785;50.674;17.954;2023-04-25T08:36:35;11.00;73.40
21255;DHT22;10785;50.674;17.954;2023-04-25T08:49:02;11.50;69.30
21255;DHT22;10785;50.674;17.954;2023-04-25T08:51:32;11.50;67.00
21255;DHT22;10785;50.674;17.954;2023-04-25T08:54:09;11.60;67.60
21255;DHT22;10785;50.674;17.954;2023-04-25T08:56:57;11.90;64.40
21255;DHT22;10785;50.674;17.954;2023-04-25T08:59:27;12.10;53.40
21255;DHT22;10785;50.674;17.954;2023-04-25T09:01:57;12.10;51.40
21255;DHT22;10785;50.674;17.954;2023-04-25T09:04:26;12.00;48.10
21255;DHT22;10785;50.674;17.954;2023-04-25T09:06:55;12.00;46.80
21255;DHT22;10785;50.674;17.954;2023-04-25T09:09:25;11.60;48.00
21255;DHT22;10785;50.674;17.954;2023-04-25T09:11:54;11.60;49.00
21255;DHT22;10785;50.674;17.954;2023-04-25T09:14:24;11.50;46.40
21255;DHT22;10785;50.674;17.954;2023-04-25T09:17:02;11.60;49.20
21255;DHT22;10785;50.674;17.954;2023-04-25T09:19:52;11.70;39.30
21255;DHT22;10785;50.674;17.954;2023-04-25T09:22:32;11.60;40.50
21255;DHT22;10785;50.674;17.954;2023-04-25T09:25:07;11.40;36.10
21255;DHT22;10785;50.674;17.954;2023-04-25T09:27:36;11.40;36.80
21255;DHT22;10785;50.674;17.954;2023-04-25T09:30:15;11.50;41.30
21255;DHT22;10785;50.674;17.954;2023-04-25T09:35:50;11.80;32.70
21255;DHT22;10785;50.674;17.954;2023-04-25T09:38:41;11.70;36.80
21255;DHT22;10785;50.674;17.954;2023-04-25T09:41:23;11.90;36.80
21255;DHT22;10785;50.674;17.954;2023-04-25T09:43:56;12.00;34.90
21255;DHT22;10785;50.674;17.954;2023-04-25T09:46:33;11.90;36.10
21255;DHT22;10785;50.674;17.954;2023-04-25T09:52:06;11.90;41.50
21255;DHT22;10785;50.674;17.954;2023-04-25T09:54:45;12.20;39.90
21255;DHT22;10785;50.674;17.954;2023-04-25T09:57:19;12.70;35.70
21255;DHT22;10785;50.674;17.954;2023-04-25T09:59:50;12.80;33.40
21255;DHT22;10785;50.674;17.954;2023-04-25T10:02:22;12.80;35.00
21255;DHT22;10785;50.674;17.954;2023-04-25T10:04:55;12.90;30.80
21255;DHT22;10785;50.674;17.954;2023-04-25T10:07:31;12.40;29.60
21255;DHT22;10785;50.674;17.954;2023-04-25T10:10:01;12.50;30.30
21255;DHT22;10785;50.674;17.954;2023-04-25T10:12:34;12.70;30.90
21255;DHT22;10785;50.674;17.954;2023-04-25T10:15:03;12.70;28.10
21255;DHT22;10785;50.674;17.954;2023-04-25T10:17:34;12.70;27.90
21255;DHT22;10785;50.674;17.954;2023-04-25T10:20:04;12.90;27.30
21255;DHT22;10785;50.674;17.954;2023-04-25T10:22:41;12.90;27.70
21255;DHT22;10785;50.674;17.954;2023-04-25T10:25:10;13.20;24.10
21255;DHT22;10785;50.674;17.954;2023-04-25T10:27:40;13.50;21.80
21255;DHT22;10785;50.674;17.954;2023-04-25T10:30:11;13.20;21.10
21255;DHT22;10785;50.674;17.954;2023-04-25T10:32:43;13.30;24.60
21255;DHT22;10785;50.674;17.954;2023-04-25T10:35:14;13.40;23.10
21255;DHT22;10785;50.674;17.954;2023-04-25T10:38:03;13.20;22.40
21255;DHT22;10785;50.674;17.954;2023-04-25T10:40:32;13.00;23.10
21255;DHT22;10785;50.674;17.954;2023-04-25T10:43:40;13.10;24.60
21255;DHT22;10785;50.674;17.954;2023-04-25T10:46:18;13.00;23.60
21255;DHT22;10785;50.674;17.954;2023-04-25T10:48:48;13.10;23.10
21255;DHT22;10785;50.674;17.954;2023-04-25T10:51:22;13.10;25.30
21255;DHT22;10785;50.674;17.954;2023-04-25T10:53:58;12.70;23.70
21255;DHT22;10785;50.674;17.954;2023-04-25T10:56:29;12.80;24.50
21255;DHT22;10785;50.674;17.954;2023-04-25T10:59:06;12.90;24.20
21255;DHT22;10785;50.674;17.954;2023-04-25T11:01:39;12.90;23.30
21255;DHT22;10785;50.674;17.954;2023-04-25T11:04:20;12.90;21.60
21255;DHT22;10785;50.674;17.954;2023-04-25T11:07:04;12.60;21.80
21255;DHT22;10785;50.674;17.954;2023-04-25T11:09:35;12.60;20.20
21255;DHT22;10785;50.674;17.954;2023-04-25T11:12:06;12.60;20.60
21255;DHT22;10785;50.674;17.954;2023-04-25T11:14:37;12.40;18.70
21255;DHT22;10785;50.674;17.954;2023-04-25T11:17:06;12.50;20.00
21255;DHT22;10785;50.674;17.954;2023-04-25T11:19:36;12.50;19.90
21255;DHT22;10785;50.674;17.954;2023-04-25T11:22:04;12.60;21.90
21255;DHT22;10785;50.674;17.954;2023-04-25T11:24:35;12.90;22.00
21255;DHT22;10785;50.674;17.954;2023-04-25T11:27:04;12.90;19.90
21255;DHT22;10785;50.674;17.954;2023-04-25T11:29:34;12.90;20.40
21255;DHT22;10785;50.674;17.954;2023-04-25T11:32:05;12.90;22.50
21255;DHT22;10785;50.674;17.954;2023-04-25T11:34:34;13.00;20.30
21255;DHT22;10785;50.674;17.954;2023-04-25T11:37:03;13.10;19.20
21255;DHT22;10785;50.674;17.954;2023-04-25T11:39:33;13.20;21.40
21255;DHT22;10785;50.674;17.954;2023-04-25T11:42:02;13.30;19.00
21255;DHT22;10785;50.674;17.954;2023-04-25T11:44:39;13.10;20.80
21255;DHT22;10785;50.674;17.954;2023-04-25T11:47:10;12.60;21.50
21255;DHT22;10785;50.674;17.954;2023-04-25T11:49:38;12.60;23.20
21255;DHT22;10785;50.674;17.954;2023-04-25T11:52:07;12.80;24.70
21255;DHT22;10785;50.674;17.954;2023-04-25T11:54:36;13.00;23.10
21255;DHT22;10785;50.674;17.954;2023-04-25T11:57:05;13.00;22.40
21255;DHT22;10785;50.674;17.954;2023-04-25T11:59:34;13.40;23.30
21255;DHT22;10785;50.674;17.954;2023-04-25T12:02:02;13.40;22.10
21255;DHT22;10785;50.674;17.954;2023-04-25T12:04:35;13.20;21.70
21255;DHT22;10785;50.674;17.954;2023-04-25T12:07:04;13.10;18.20
21255;DHT22;10785;50.674;17.954;2023-04-25T12:09:38;13.20;21.90
21255;DHT22;10785;50.674;17.954;2023-04-25T12:12:10;13.00;21.90
21255;DHT22;10785;50.674;17.954;2023-04-25T12:14:38;12.90;22.60
21255;DHT22;10785;50.674;17.954;2023-04-25T12:17:07;12.90;21.40
21255;DHT22;10785;50.674;17.954;2023-04-25T12:19:39;12.80;19.60
21255;DHT22;10785;50.674;17.954;2023-04-25T12:22:19;12.80;20.70
21255;DHT22;10785;50.674;17.954;2023-04-25T12:24:48;13.00;19.70
21255;DHT22;10785;50.674;17.954;2023-04-25T12:27:17;12.90;17.50
21255;DHT22;10785;50.674;17.954;2023-04-25T12:29:53;12.90;19.40
21255;DHT22;10785;50.674;17.954;2023-04-25T12:32:23;12.90;18.50
21255;DHT22;10785;50.674;17.954;2023-04-25T12:34:53;13.00;18.20
21255;DHT22;10785;50.674;17.954;2023-04-25T12:37:22;13.10;17.80
21255;DHT22;10785;50.674;17.954;2023-04-25T12:39:51;13.20;18.10
21255;DHT22;10785;50.674;17.954;2023-04-25T12:42:20;13.40;18.70
21255;DHT22;10785;50.674;17.954;2023-04-25T12:44:48;13.50;18.00
21255;DHT22;10785;50.674;17.954;2023-04-25T12:47:17;13.50;17.00
21255;DHT22;10785;50.674;17.954;2023-04-25T12:49:46;13.40;19.40
21255;DHT22;10785;50.674;17.954;2023-04-25T12:52:16;13.40;17.40
21255;DHT22;10785;50.674;17.954;2023-04-25T12:54:44;13.40;16.80
21255;DHT22;10785;50.674;17.954;2023-04-25T12:57:13;13.50;16.30
21255;DHT22;10785;50.674;17.954;2023-04-25T12:59:41;13.80;13.00
21255;DHT22;10785;50.674;17.954;2023-04-25T13:02:10;13.80;12.20
21255;DHT22;10785;50.674;17.954;2023-04-25T13:04:39;13.70;12.20
21255;DHT22;10785;50.674;17.954;2023-04-25T13:07:07;13.60;12.90
21255;DHT22;10785;50.674;17.954;2023-04-25T13:09:37;13.40;11.50
21255;DHT22;10785;50.674;17.954;2023-04-25T13:12:06;13.20;11.60
21255;DHT22;10785;50.674;17.954;2023-04-25T13:14:34;13.10;11.20
21255;DHT22;10785;50.674;17.954;2023-04-25T13:17:03;13.20;11.70
21255;DHT22;10785;50.674;17.954;2023-04-25T13:19:32;13.40;11.50
21255;DHT22;10785;50.674;17.954;2023-04-25T13:22:00;13.40;11.40
21255;DHT22;10785;50.674;17.954;2023-04-25T13:24:31;13.60;11.40
21255;DHT22;10785;50.674;17.954;2023-04-25T13:27:01;13.40;8.30
21255;DHT22;10785;50.674;17.954;2023-04-25T13:29:30;13.40;8.70
21255;DHT22;10785;50.674;17.954;2023-04-25T13:32:02;13.60;9.80
21255;DHT22;10785;50.674;17.954;2023-04-25T13:34:55;14.00;8.90
21255;DHT22;10785;50.674;17.954;2023-04-25T13:37:24;13.90;7.30
21255;DHT22;10785;50.674;17.954;2023-04-25T13:39:52;14.00;6.90
21255;DHT22;10785;50.674;17.954;2023-04-25T13:42:24;14.10;6.40
21255;DHT22;10785;50.674;17.954;2023-04-25T13:44:53;13.80;4.80
21255;DHT22;10785;50.674;17.954;2023-04-25T13:47:22;13.80;6.30
21255;DHT22;10785;50.674;17.954;2023-04-25T13:49:50;13.80;5.70
21255;DHT22;10785;50.674;17.954;2023-04-25T13:52:19;13.60;6.10
21255;DHT22;10785;50.674;17.954;2023-04-25T13:54:48;13.40;6.60
21255;DHT22;10785;50.674;17.954;2023-04-25T13:57:17;13.30;7.90
21255;DHT22;10785;50.674;17.954;2023-04-25T13:59:47;13.20;7.20
21255;DHT22;10785;50.674;17.954;2023-04-25T14:02:16;13.10;8.10
21255;DHT22;10785;50.674;17.954;2023-04-25T14:04:45;13.00;8.10
21255;DHT22;10785;50.674;17.954;2023-04-25T14:07:14;13.10;8.00
21255;DHT22;10785;50.674;17.954;2023-04-25T14:09:44;13.00;7.70
21255;DHT22;10785;50.674;17.954;2023-04-25T14:12:13;12.90;7.50
21255;DHT22;10785;50.674;17.954;2023-04-25T14:14:41;13.00;9.30
21255;DHT22;10785;50.674;17.954;2023-04-25T14:17:11;13.10;9.20
21255;DHT22;10785;50.674;17.954;2023-04-25T14:19:42;13.20;9.30
21255;DHT22;10785;50.674;17.954;2023-04-25T14:22:12;13.30;9.10
21255;DHT22;10785;50.674;17.954;2023-04-25T14:24:41;13.30;7.90
21255;DHT22;10785;50.674;17.954;2023-04-25T14:27:10;13.40;7.10
21255;DHT22;10785;50.674;17.954;2023-04-25T14:29:39;13.60;8.50
21255;DHT22;10785;50.674;17.954;2023-04-25T14:32:07;13.60;8.80
21255;DHT22;10785;50.674;17.954;2023-04-25T14:34:37;13.40;8.30
21255;DHT22;10785;50.674;17.954;2023-04-25T14:37:06;13.40;9.30
21255;DHT22;10785;50.674;17.954;2023-04-25T14:39:35;13.50;8.30
21255;DHT22;10785;50.674;17.954;2023-04-25T14:42:04;13.20;9.20
21255;DHT22;10785;50.674;17.954;2023-04-25T14:44:32;13.10;9.60
21255;DHT22;10785;50.674;17.954;2023-04-25T14:47:01;12.90;10.30
21255;DHT22;10785;50.674;17.954;2023-04-25T14:49:30;12.90;10.60
21255;DHT22;10785;50.674;17.954;2023-04-25T14:51:59;13.00;11.30
21255;DHT22;10785;50.674;17.954;2023-04-25T14:54:29;12.80;11.30
21255;DHT22;10785;50.674;17.954;2023-04-25T14:56:57;12.90;12.70
21255;DHT22;10785;50.674;17.954;2023-04-25T14:59:26;12.80;12.30
21255;DHT22;10785;50.674;17.954;2023-04-25T15:01:55;12.60;11.70
21255;DHT22;10785;50.674;17.954;2023-04-25T15:04:26;12.70;12.50
21255;DHT22;10785;50.674;17.954;2023-04-25T15:06:55;12.80;12.00
21255;DHT22;10785;50.674;17.954;2023-04-25T15:09:25;12.90;12.40
21255;DHT22;10785;50.674;17.954;2023-04-25T15:11:56;13.10;11.60
21255;DHT22;10785;50.674;17.954;2023-04-25T15:14:24;13.10;12.10
21255;DHT22;10785;50.674;17.954;2023-04-25T15:16:53;13.10;9.80
21255;DHT22;10785;50.674;17.954;2023-04-25T15:19:22;13.00;11.10
21255;DHT22;10785;50.674;17.954;2023-04-25T15:21:51;12.90;12.00
21255;DHT22;10785;50.674;17.954;2023-04-25T15:24:19;12.90;12.90
21255;DHT22;10785;50.674;17.954;2023-04-25T15:26:50;13.10;11.80
21255;DHT22;10785;50.674;17.954;2023-04-25T15:29:18;13.20;11.30
21255;DHT22;10785;50.674;17.954;2023-04-25T15:31:47;13.00;10.70
21255;DHT22;10785;50.674;17.954;2023-04-25T15:34:16;13.10;11.60
21255;DHT22;10785;50.674;17.954;2023-04-25T15:36:44;13.30;11.20
21255;DHT22;10785;50.674;17.954;2023-04-25T15:39:13;13.30;11.40
21255;DHT22;10785;50.674;17.954;2023-04-25T15:41:42;13.20;11.10
21255;DHT22;10785;50.674;17.954;2023-04-25T15:44:12;13.10;11.80
21255;DHT22;10785;50.674;17.954;2023-04-25T15:46:41;13.00;11.40
21255;DHT22;10785;50.674;17.954;2023-04-25T15:49:10;12.90;12.20
21255;DHT22;10785;50.674;17.954;2023-04-25T15:51:39;12.80;11.50
21255;DHT22;10785;50.674;17.954;2023-04-25T15:54:07;12.70;10.90
21255;DHT22;10785;50.674;17.954;2023-04-25T15:56:36;12.50;11.20
21255;DHT22;10785;50.674;17.954;2023-04-25T15:59:05;12.60;11.70
21255;DHT22;10785;50.674;17.954;2023-04-25T16:01:35;12.40;13.00
21255;DHT22;10785;50.674;17.954;2023-04-25T16:04:04;12.50;13.40
21255;DHT22;10785;50.674;17.954;2023-04-25T16:06:33;12.50;13.70
21255;DHT22;10785;50.674;17.954;2023-04-25T16:28:40;12.00;14.90
21255;DHT22;10785;50.674;17.954;2023-04-25T16:31:09;12.00;15.80
21255;DHT22;10785;50.674;17.954;2023-04-25T16:33:38;12.00;16.90
21255;DHT22;10785;50.674;17.954;2023-04-25T16:36:07;11.90;16.40
21255;DHT22;10785;50.674;17.954;2023-04-25T16:38:36;11.90;16.70
21255;DHT22;10785;50.674;17.954;2023-04-25T16:41:06;11.90;17.40
21255;DHT22;10785;50.674;17.954;2023-04-25T16:43:34;11.90;17.70
21255;DHT22;10785;50.674;17.954;2023-04-25T16:46:07;11.90;17.50
21255;DHT22;10785;50.674;17.954;2023-04-25T16:48:36;11.80;18.00